Weller, Iowa
Current Conditions -  °F | °C
As of 8:15 PM on Thursday 20 Nov 2014 (Local Time) from KOXV Reporting Station
Clear Clear  
Wind Chill: 19°   Ceiling: Unl
Heat Index: 19°   Visibility: 10mi
Dew Point: 10°   Wind: 3mph
Humidity: 68%   Direction: 40°NE
Pressure: 30.26"   Gusts: NA
Location:  41.1173°N, 92.9847°W
Report Text: KOXV 210215Z AUTO 04003KT 10SM CLR M07/M12 A3026 RMK AO2
Loading
Personal Weather Stations






























Interactive Weather Map New forecast layout! Learn more

10-Day Weather Forecast

Advertisements
Track Severe Weather on mobile